Flight Track Log - Related Links

Times and Time Zones

All times are in EDT time to prevent confusion due to time zone crossing. See the N414MF flight status page for this flight to view local times or setup timezone preferences in your user account.

Time Position Orientation Groundspeed Altitude Reporting Facility
EDT Latitude Longitude Course Direction KTS MPH feet Rate Location/Type
Tue 05:11:07 PM 37.4000 -77.8500 275° West 140 161 5,900  Level Potomac TRACON
Tue 05:12:09 PM 37.4025 -77.8897 258° West 137 158 6,600 639 Climbing Washington Center
Tue 05:13:09 PM 37.3956 -77.9314 258° West 132 152 7,200 645 Climbing Washington Center
Tue 05:14:10 PM 37.3883 -77.9731 250° West 127 146 7,900 694 Climbing Washington Center
Tue 05:15:10 PM 37.3772 -78.0119 248° West 127 146 8,600 637 Climbing Washington Center
Tue 05:17:09 PM 37.3503 -78.0947 246° West 127 146 9,800 469 Climbing Washington Center
Tue 05:18:09 PM 37.3328 -78.1439 258° West 137 158 10,000 50 Climbing Washington Center
Tue 05:19:10 PM 37.3231 -78.2036 250° West 152 175 9,900 -50 Descending Washington Center
Tue 05:20:10 PM 37.3072 -78.2578 253° West 160 184 9,900  Level Washington Center
Tue 05:21:08 PM 37.2936 -78.3122 251° West 165 190 9,900  Level Washington Center
Tue 05:22:08 PM 37.2800 -78.3611 251° West 165 190 9,900  Level Washington Center
Tue 05:23:08 PM 37.2661 -78.4131 250° West 165 190 9,900  Level Washington Center
Tue 05:24:09 PM 37.2503 -78.4672 251° West 165 190 9,900  Level Washington Center
Tue 05:25:10 PM 37.2367 -78.5161 250° West 165 190 9,900  Level Washington Center
Tue 05:26:10 PM 37.2206 -78.5731 249° West 165 190 9,900 305 Level Washington Center
Tue 05:27:08 PM 37.2069 -78.6167 249° West 154 177 10,500 508 Climbing Washington Center
Tue 05:28:08 PM 37.1933 -78.6606 249° West 147 169 10,900 347 Climbing Washington Center
Tue 05:29:09 PM 37.1797 -78.7044 250° West 147 169 11,200 344 Climbing Washington Center
Tue 05:30:10 PM 37.1681 -78.7456 252° West 147 169 11,600 446 Climbing Washington Center
Tue 05:31:10 PM 37.1567 -78.7894 248° West 147 169 12,100 407 Climbing Washington Center
Tue 05:32:08 PM 37.1428 -78.8331 249° West 147 169 12,400 303 Climbing Washington Center
Tue 05:33:09 PM 37.1292 -78.8769 252° West 147 169 12,700 344 Climbing Washington Center
Tue 05:34:10 PM 37.1153 -78.9308 248° West 147 169 13,100 446 Climbing Washington Center
Tue 05:35:10 PM 37.1014 -78.9747 253° West 147 169 13,600 407 Climbing Washington Center
Tue 05:36:08 PM 37.0897 -79.0211 248° West 147 169 13,900 153 Climbing Washington Center
Tue 05:37:08 PM 37.0736 -79.0722 252° West 147 169 13,900  Level Washington Center
Tue 05:38:09 PM 37.0594 -79.1264 247° West 153 176 13,900  Level Washington Center
Tue 05:39:10 PM 37.0436 -79.1725 252° West 158 182 13,900  Level Washington Center
Tue 05:40:09 PM 37.0294 -79.2264 249° West 164 189 13,900  Level Washington Center
Tue 05:41:10 PM 37.0131 -79.2803 248° West 164 189 13,900  Level Washington Center
Tue 05:42:08 PM 36.9969 -79.3314 250° West 164 189 13,900  Level Washington Center
Tue 05:43:10 PM 36.9806 -79.3878 249° West 164 189 13,900  Level Washington Center
Tue 05:44:10 PM 36.9642 -79.4417 251° West 164 189 13,900 51 Level Washington Center
Tue 05:45:08 PM 36.9500 -79.4931 252° West 164 189 14,000 50 Climbing Washington Center
Tue 05:46:09 PM 36.9358 -79.5469 249° West 164 189 14,000  Level Washington Center
Tue 05:47:10 PM 36.9217 -79.5928 249° West 164 189 14,000 -50 Level Washington Center
Tue 05:48:08 PM 36.9053 -79.6467 249° West 164 189 13,900 -50 Descending Washington Center
Tue 05:49:09 PM 36.8889 -79.7003 248° West 164 189 13,900  Level Washington Center
Tue 05:50:09 PM 36.8725 -79.7514 250° West 164 189 13,900 50 Level Washington Center
Tue 05:51:10 PM 36.8536 -79.8153 251° West 164 189 14,000 50 Climbing Washington Center
Tue 05:52:09 PM 36.8392 -79.8689 250° West 164 189 14,000 -50 Level Washington Center
Tue 05:53:09 PM 36.8225 -79.9250 248° West 164 189 13,900  Descending Washington Center
Tue 05:55:04 PM 36.7894 -80.0289 248° West 172 198 14,000 69 Climbing Atlanta Center
Tue 05:56:04 PM 36.7722 -80.0817 250° West 172 198 14,100 50 Climbing Atlanta Center
Tue 05:57:04 PM 36.7572 -80.1342 258° West 172 198 14,100  Level Atlanta Center
Tue 05:58:04 PM 36.7486 -80.1839 251° West 172 198 14,100 -50 Level Atlanta Center
Tue 05:59:04 PM 36.7336 -80.2389 249° West 167 192 14,000 -50 Descending Atlanta Center
Tue 06:00:04 PM 36.7183 -80.2889 252° West 167 192 14,000  Level Atlanta Center
Tue 06:01:04 PM 36.7033 -80.3464 253° West 167 192 14,000 -50 Level Atlanta Center
Tue 06:02:04 PM 36.6906 -80.3989 258° West 167 192 13,900  Descending Atlanta Center
Tue 06:03:04 PM 36.6817 -80.4511 256° West 167 192 14,000 50 Climbing Atlanta Center
Tue 06:04:04 PM 36.6706 -80.5058 254° West 167 192 14,000  Level Atlanta Center
Tue 06:05:04 PM 36.6594 -80.5531 248° West 167 192 14,000 -50 Level Atlanta Center
Tue 06:06:04 PM 36.6403 -80.6133 244° Southwest 167 192 13,900 -50 Descending Atlanta Center
Tue 06:07:04 PM 36.6208 -80.6633 245° Southwest 167 192 13,900 50 Level Atlanta Center
Tue 06:08:04 PM 36.6033 -80.7106 248° West 162 186 14,000  Climbing Atlanta Center
Tue 06:09:04 PM 36.5861 -80.7631 252° West 157 181 13,900 -50 Descending Atlanta Center
Tue 06:10:04 PM 36.5728 -80.8128 252° West 152 175 13,900  Level Atlanta Center
Tue 06:11:04 PM 36.5594 -80.8650 250° West 159 183 13,900  Level Atlanta Center
Tue 06:12:04 PM 36.5461 -80.9094 260° West 159 183 13,900  Level Atlanta Center
Tue 06:13:04 PM 36.5389 -80.9614 248° West 153 176 13,900  Level Atlanta Center
Tue 06:14:04 PM 36.5217 -81.0136 249° West 159 183 13,900  Level Atlanta Center
Tue 06:15:04 PM 36.5061 -81.0633 251° West 164 189 13,900  Level Atlanta Center
Tue 06:16:04 PM 36.4908 -81.1181 249° West 164 189 13,900  Level Atlanta Center
Tue 06:17:04 PM 36.4753 -81.1678 247° West 169 194 13,900  Level Atlanta Center
Tue 06:18:04 PM 36.4575 -81.2200 251° West 169 194 13,900  Level Atlanta Center
Tue 06:19:04 PM 36.4422 -81.2747 247° West 169 194 13,900  Level Atlanta Center
Tue 06:20:04 PM 36.4244 -81.3269 251° West 169 194 13,900  Level Atlanta Center
Tue 06:21:04 PM 36.4111 -81.3764 247° West 164 189 13,900  Level Atlanta Center
Tue 06:22:04 PM 36.3933 -81.4286 246° West 164 189 13,900  Level Atlanta Center
Tue 06:23:04 PM 36.3758 -81.4781 249° West 164 189 13,900  Level Atlanta Center
Tue 06:24:04 PM 36.3600 -81.5303 249° West 164 189 13,900  Level Atlanta Center
Tue 06:25:04 PM 36.3444 -81.5797 246° West 164 189 13,900  Level Atlanta Center
Tue 06:26:04 PM 36.3267 -81.6292 251° West 157 181 13,900  Level Atlanta Center
Tue 06:27:04 PM 36.3131 -81.6786 246° West 157 181 13,900  Level Atlanta Center
Tue 06:28:04 PM 36.2950 -81.7281 248° West 157 181 13,900  Level Atlanta Center
Tue 06:29:04 PM 36.2794 -81.7747 248° West 157 181 13,900  Level Atlanta Center
Tue 06:30:05 PM 36.2636 -81.8242 250° West 157 181 13,900  Level Atlanta Center
Tue 06:31:04 PM 36.2478 -81.8786 247° West 157 181 13,900 50 Level Atlanta Center
Tue 06:32:04 PM 36.2319 -81.9256 248° West 157 181 14,000  Climbing Atlanta Center
Tue 06:33:04 PM 36.2161 -81.9747 246° West 151 174 13,900 -50 Descending Atlanta Center
Tue 06:34:04 PM 36.1961 -82.0294 247° West 156 180 13,900  Level Atlanta Center
Tue 06:35:04 PM 36.1783 -82.0811 250° West 156 180 13,900  Level Atlanta Center
Tue 06:36:04 PM 36.1625 -82.1356 246° West 157 181 13,900  Level Atlanta Center
Tue 06:37:04 PM 36.1425 -82.1900 246° West 162 186 13,900  Level Atlanta Center
Tue 06:38:04 PM 36.1244 -82.2392 249° West 162 186 13,900  Level Atlanta Center
Tue 06:39:04 PM 36.1083 -82.2911 247° West 162 186 13,900  Level Atlanta Center
Tue 06:40:04 PM 36.0903 -82.3428 247° West 162 186 13,900  Level Atlanta Center
Tue 06:41:04 PM 36.0722 -82.3947 248° West 162 186 13,900  Level Atlanta Center
Tue 06:42:04 PM 36.0561 -82.4436 247° West 162 186 13,900  Level Atlanta Center
Tue 06:43:04 PM 36.0381 -82.4956 249° West 162 186 13,900  Level Atlanta Center
Tue 06:44:04 PM 36.0222 -82.5472 246° West 167 192 13,900  Level Atlanta Center
Tue 06:45:04 PM 36.0039 -82.5989 249° West 167 192 13,900  Level Atlanta Center
Tue 06:46:04 PM 35.9878 -82.6503 247° West 172 198 13,900  Level Atlanta Center
Tue 06:47:04 PM 35.9697 -82.7019 246° West 172 198 13,900  Level Atlanta Center
Tue 06:48:04 PM 35.9514 -82.7536 248° West 172 198 13,900  Level Atlanta Center
Tue 06:49:04 PM 35.9353 -82.8025 244° Southwest 167 192 13,900  Level Atlanta Center
Tue 06:50:04 PM 35.9150 -82.8542 249° West 167 192 13,900  Level Atlanta Center
Tue 06:51:04 PM 35.8986 -82.9058 246° West 167 192 13,900  Level Atlanta Center
Tue 06:52:04 PM 35.8803 -82.9572 249° West 172 198 13,900  Level Atlanta Center
Tue 06:53:04 PM 35.8661 -83.0036 248° West 167 192 13,900  Level Atlanta Center
Tue 06:54:04 PM 35.8500 -83.0525 246° West 167 192 13,900  Level Atlanta Center
Tue 06:55:04 PM 35.8314 -83.1039 246° West 162 186 13,900  Level Atlanta Center
Tue 06:56:04 PM 35.8131 -83.1553 248° West 162 186 13,900  Level Atlanta Center
Tue 06:57:04 PM 35.7967 -83.2042 250° West 167 192 13,900  Level Atlanta Center
Tue 06:58:04 PM 35.7783 -83.2658 248° West 173 199 13,900  Level Atlanta Center
Tue 06:59:04 PM 35.7619 -83.3169 244° Southwest 173 199 13,900  Level Atlanta Center
Tue 07:00:04 PM 35.7414 -83.3683 246° West 173 199 13,900  Level Atlanta Center
Tue 07:01:04 PM 35.7231 -83.4197 248° West 168 193 13,900  Level Atlanta Center
Tue 07:02:04 PM 35.7064 -83.4711 246° West 168 193 13,900  Level Atlanta Center
Tue 07:03:04 PM 35.6881 -83.5222 249° West 168 193 13,900  Level Atlanta Center
Tue 07:04:04 PM 35.6714 -83.5761 247° West 168 193 13,900 -250 Level Atlanta Center
Tue 07:05:04 PM 35.6528 -83.6297 245° Southwest 168 193 13,400 -400 Descending Atlanta Center
Tue 07:06:04 PM 35.6322 -83.6836 248° West 173 199 13,100 -350 Descending Atlanta Center
Tue 07:07:04 PM 35.6136 -83.7400 247° West 173 199 12,700 -350 Descending Atlanta Center
Tue 07:08:04 PM 35.5950 -83.7936 244° Southwest 173 199 12,400 -400 Descending Atlanta Center
Tue 07:09:04 PM 35.5742 -83.8472 248° West 173 199 11,900 -450 Descending Atlanta Center
Tue 07:10:04 PM 35.5556 -83.9033 247° West 173 199 11,500 -400 Descending Atlanta Center
Tue 07:11:04 PM 35.5367 -83.9569 246° West 173 199 11,100 -450 Descending Atlanta Center
Tue 07:12:04 PM 35.5158 -84.0133 248° West 173 199 10,600 -450 Descending Atlanta Center
Tue 07:13:04 PM 35.4972 -84.0694 245° Southwest 173 199 10,200 -500 Descending Atlanta Center
Tue 07:14:04 PM 35.4761 -84.1256 246° West 173 199 9,600 -800 Descending Atlanta Center
Tue 07:15:04 PM 35.4553 -84.1817 245° Southwest 173 199 8,600 -1,000 Descending Atlanta Center
Tue 07:22:15 PM 35.3167 -84.5409 247° West  Level FlightAware Approximate
Tue 07:23:15 PM 35.2989 -84.5915 242° Southwest  Level FlightAware Approximate
Tue 07:24:15 PM 35.2778 -84.6409 242° Southwest  Level FlightAware Approximate

Login

Don't have an account? Register now (free) for customized features, flight alerts, and more!